createdAt,value
2023-12-08T14:30:09.894Z,29.63
2023-12-08T14:32:37.574Z,29.50
2023-12-08T14:35:11.171Z,27.85
2023-12-08T14:37:46.619Z,26.35
2023-12-08T14:40:14.829Z,25.90
2023-12-08T14:42:41.766Z,23.58
2023-12-08T14:45:11.513Z,23.92
2023-12-08T14:47:38.928Z,22.50
2023-12-08T14:50:06.324Z,22.67
2023-12-08T14:52:33.526Z,21.10
2023-12-08T14:55:05.834Z,21.23
2023-12-08T14:57:33.466Z,20.42
2023-12-08T15:00:00.431Z,23.88
2023-12-08T15:02:27.433Z,21.83
2023-12-08T15:04:54.395Z,20.88
2023-12-08T15:07:21.203Z,21.00
2023-12-08T15:09:48.063Z,25.05
2023-12-08T15:12:14.870Z,22.02
2023-12-08T15:14:41.837Z,22.25
2023-12-08T15:17:08.569Z,24.77
2023-12-08T15:19:35.651Z,27.10
2023-12-08T15:22:03.701Z,27.50
2023-12-08T15:24:30.671Z,23.38
2023-12-08T15:26:58.060Z,20.55
2023-12-08T15:29:24.904Z,18.00
2023-12-08T15:31:51.708Z,17.67
2023-12-08T15:34:19.791Z,16.52
2023-12-08T15:36:47.445Z,13.35
2023-12-08T15:39:15.612Z,13.98
2023-12-08T15:41:47.495Z,14.05
2023-12-08T15:44:14.989Z,20.42
2023-12-08T15:46:42.645Z,19.27
2023-12-08T15:49:11.406Z,18.35
2023-12-08T15:51:43.712Z,16.35
2023-12-08T15:54:10.994Z,16.45
2023-12-08T15:56:39.300Z,16.10
2023-12-08T15:59:06.655Z,15.60
2023-12-08T16:01:33.476Z,15.50
2023-12-08T16:04:01.698Z,27.02
2023-12-08T16:06:28.729Z,21.48
2023-12-08T16:08:55.558Z,18.25
2023-12-08T16:11:29.630Z,16.88
2023-12-08T16:13:57.209Z,16.67
2023-12-08T16:16:24.864Z,16.60
2023-12-08T16:18:52.535Z,17.52
2023-12-08T16:21:23.951Z,17.70
2023-12-08T16:23:51.175Z,17.75
2023-12-08T16:26:18.358Z,16.02
2023-12-08T16:28:45.503Z,18.92
2023-12-08T16:31:12.366Z,17.88
2023-12-08T16:33:39.608Z,18.70
2023-12-08T16:36:06.871Z,18.63
2023-12-08T16:38:35.731Z,17.15
2023-12-08T16:41:03.041Z,17.98
2023-12-08T16:43:30.100Z,17.95
2023-12-08T16:45:57.229Z,19.77
2023-12-08T16:48:24.397Z,20.20
2023-12-08T16:50:51.570Z,20.48
2023-12-08T16:53:21.006Z,20.65
2023-12-08T16:55:48.131Z,20.10
2023-12-08T16:58:15.460Z,21.83
2023-12-08T17:00:42.332Z,17.55
2023-12-08T17:03:09.189Z,15.18
2023-12-08T17:05:36.020Z,14.80
2023-12-08T17:08:02.873Z,14.27
2023-12-08T17:10:30.099Z,13.02
2023-12-08T17:12:56.859Z,12.45
2023-12-08T17:15:23.826Z,11.82
2023-12-08T17:17:57.194Z,11.25
2023-12-08T17:20:27.384Z,12.27
2023-12-08T17:22:54.368Z,13.20
2023-12-08T17:25:21.245Z,11.00
2023-12-08T17:27:48.091Z,9.65
2023-12-08T17:30:15.075Z,10.32
2023-12-08T17:32:42.036Z,9.18
2023-12-08T17:35:09.067Z,9.15
2023-12-08T17:37:36.055Z,9.07
2023-12-08T17:40:04.258Z,9.38
2023-12-08T17:42:31.299Z,9.43
2023-12-08T17:44:58.447Z,14.65
2023-12-08T17:47:25.356Z,15.95
2023-12-08T17:49:52.322Z,12.27
2023-12-08T17:52:22.600Z,8.10
2023-12-08T17:54:55.218Z,7.88
2023-12-08T17:57:22.306Z,8.10
2023-12-08T17:59:49.204Z,8.60
2023-12-08T18:02:16.112Z,8.88
2023-12-08T18:04:42.894Z,8.73
2023-12-08T18:07:10.441Z,8.88
2023-12-08T18:09:38.628Z,9.77
2023-12-08T18:12:09.672Z,9.20
2023-12-08T18:14:37.161Z,9.68
2023-12-08T18:17:04.230Z,7.93
2023-12-08T18:19:31.270Z,8.95
2023-12-08T18:21:58.570Z,9.73
2023-12-08T18:24:25.615Z,9.00
2023-12-08T18:26:54.371Z,11.45
2023-12-08T18:29:21.750Z,9.68
2023-12-08T18:31:48.993Z,8.85
2023-12-08T18:34:17.067Z,9.10
2023-12-08T18:36:44.071Z,8.55
2023-12-08T18:39:11.987Z,8.13
2023-12-08T18:41:39.311Z,7.60
2023-12-08T18:44:09.579Z,7.70
2023-12-08T18:46:36.580Z,6.97
2023-12-08T18:49:05.129Z,7.45
2023-12-08T18:51:32.468Z,6.80
2023-12-08T18:53:59.532Z,8.38
2023-12-08T18:56:26.774Z,7.65
2023-12-08T18:58:56.404Z,7.65
2023-12-08T19:01:28.231Z,7.97
2023-12-08T19:03:55.168Z,6.85
2023-12-08T19:06:22.342Z,6.75
2023-12-08T19:08:49.432Z,7.43
2023-12-08T19:11:16.411Z,7.72
2023-12-08T19:13:44.965Z,6.78
2023-12-08T19:16:12.064Z,6.85
2023-12-08T19:18:39.033Z,6.40
2023-12-08T19:21:06.200Z,6.85
2023-12-08T19:23:34.945Z,7.20
2023-12-08T19:26:03.400Z,8.32
2023-12-08T19:28:30.258Z,7.22
2023-12-08T19:30:57.168Z,7.43
2023-12-08T19:33:25.343Z,7.10
2023-12-08T19:35:55.454Z,6.55
2023-12-08T19:38:22.261Z,7.03
2023-12-08T19:40:49.061Z,6.57
2023-12-08T19:43:16.399Z,6.53
2023-12-08T19:45:43.291Z,6.93
2023-12-08T19:48:11.337Z,6.78
2023-12-08T19:50:39.605Z,7.05
2023-12-08T19:53:08.362Z,6.57
2023-12-08T19:55:35.274Z,8.23
2023-12-08T19:58:02.864Z,9.18
2023-12-08T20:00:29.785Z,10.65
2023-12-08T20:02:56.671Z,11.23
2023-12-08T20:05:23.517Z,10.23
2023-12-08T20:07:50.457Z,11.85
2023-12-08T20:10:17.515Z,13.60
2023-12-08T20:12:44.414Z,16.23
2023-12-08T20:15:12.757Z,13.70
2023-12-08T20:17:39.770Z,12.90
2023-12-08T20:20:07.562Z,11.20
2023-12-08T20:22:34.594Z,11.50
2023-12-08T20:25:01.594Z,11.20
2023-12-08T20:27:28.778Z,17.77
2023-12-08T20:29:55.877Z,16.50
2023-12-08T20:32:22.729Z,17.00
2023-12-08T20:34:49.590Z,18.52
2023-12-08T20:37:16.465Z,12.80
2023-12-08T20:39:46.766Z,11.60
2023-12-08T20:42:13.786Z,13.88
2023-12-08T20:44:40.649Z,12.20
2023-12-08T20:47:07.428Z,13.27
2023-12-08T20:49:34.349Z,10.75
2023-12-08T20:52:01.720Z,10.93
2023-12-08T20:54:28.779Z,9.82
2023-12-08T20:56:55.743Z,10.70
2023-12-08T20:59:22.628Z,11.90
2023-12-08T21:01:50.038Z,10.43
2023-12-08T21:04:17.054Z,11.10
2023-12-08T21:06:44.062Z,12.68
2023-12-08T21:09:14.623Z,11.18
2023-12-08T21:11:44.671Z,12.75
2023-12-08T21:14:13.284Z,13.02
2023-12-08T21:16:40.264Z,10.52
2023-12-08T21:19:07.381Z,11.95
2023-12-08T21:21:34.819Z,11.25
2023-12-08T21:24:01.818Z,12.65
2023-12-08T21:26:30.496Z,12.50
2023-12-08T21:28:57.393Z,12.52
2023-12-08T21:31:24.428Z,11.48
2023-12-08T21:33:51.377Z,10.43
2023-12-08T21:36:19.168Z,11.32
2023-12-08T21:38:46.159Z,11.82
2023-12-08T21:41:13.722Z,11.55
2023-12-08T21:43:40.539Z,13.38
2023-12-08T21:46:07.435Z,11.88
2023-12-08T21:48:34.552Z,10.70
2023-12-08T21:51:01.665Z,11.18
2023-12-08T21:53:28.814Z,11.02
2023-12-08T21:55:56.471Z,10.60
2023-12-08T21:58:23.365Z,12.85
2023-12-08T22:00:50.180Z,11.23
2023-12-08T22:03:17.630Z,13.32
2023-12-08T22:05:45.596Z,10.07
2023-12-08T22:08:12.474Z,11.20
2023-12-08T22:10:39.944Z,10.65
2023-12-08T22:13:06.827Z,10.82
2023-12-08T22:15:33.710Z,10.50
2023-12-08T22:18:00.626Z,11.10
2023-12-08T22:20:27.659Z,11.77
2023-12-08T22:22:54.445Z,10.98
2023-12-08T22:25:21.411Z,9.85
2023-12-08T22:27:48.499Z,9.73
2023-12-08T22:30:15.502Z,10.25
2023-12-08T22:32:42.886Z,10.63
2023-12-08T22:35:09.964Z,10.98
2023-12-08T22:37:38.056Z,9.77
2023-12-08T22:40:05.815Z,9.95
2023-12-08T22:42:32.692Z,9.95
2023-12-08T22:44:59.498Z,10.40
2023-12-08T22:47:26.648Z,10.93
2023-12-08T22:49:53.751Z,10.18
2023-12-08T22:52:20.679Z,9.93
2023-12-08T22:54:47.543Z,11.00
2023-12-08T22:57:14.535Z,10.80
2023-12-08T22:59:41.388Z,10.50
2023-12-08T23:02:08.211Z,11.27
2023-12-08T23:04:35.925Z,10.75
2023-12-08T23:07:02.700Z,10.57
2023-12-08T23:09:29.971Z,10.13
2023-12-08T23:11:56.963Z,10.20
2023-12-08T23:14:23.828Z,10.35
2023-12-08T23:16:50.685Z,10.23
2023-12-08T23:19:17.666Z,10.75
2023-12-08T23:21:44.708Z,10.40
2023-12-08T23:24:11.565Z,9.93
2023-12-08T23:26:40.696Z,10.05
2023-12-08T23:29:07.807Z,10.52
2023-12-08T23:31:35.177Z,9.93
2023-12-08T23:34:02.563Z,10.48
2023-12-08T23:36:29.539Z,10.10
2023-12-08T23:38:56.714Z,10.45
2023-12-08T23:41:23.644Z,9.85
2023-12-08T23:43:52.660Z,10.25
2023-12-08T23:46:20.951Z,11.45
2023-12-08T23:48:47.946Z,10.25
2023-12-08T23:51:14.807Z,10.15
2023-12-08T23:53:41.574Z,11.05
2023-12-08T23:56:08.828Z,11.48
2023-12-08T23:58:35.618Z,10.50
